Time;durP1;ratioP1;P1;durP2;ratioP2;P2;SDS_P1;SDS_P2;PMS_P1;PMS_P2;Temp;Humidity;BMP_temperature;BMP_pressure;BME280_temperature;BME280_humidity;BME280_pressure;Samples;Min_cycle;Max_cycle;Signal;HPM_P1;HPM_P2
2021/01/28 00:00:20;;;;;;;14.18;12.68;;;;;;;0.52;100.00;95663.69;1053772;28;20016;-72
2021/01/28 00:00:51;;;;;;;13.35;12.05;;;;;;;0.50;100.00;95672.69;1052431;28;20031;-72
2021/01/28 00:01:21;;;;;;;13.77;12.38;;;;;;;0.48;100.00;95664.28;1052387;28;20113;-73
2021/01/28 00:01:52;;;;;;;13.80;12.38;;;;;;;0.47;100.00;95666.06;1052435;28;20380;-72
2021/01/28 00:02:22;;;;;;;13.60;12.20;;;;;;;0.53;100.00;95669.69;1052420;28;20039;-72
2021/01/28 00:02:53;;;;;;;12.95;11.65;;;;;;;0.54;100.00;95664.28;1052746;28;20433;-72
2021/01/28 00:03:23;;;;;;;12.70;11.48;;;;;;;0.58;99.79;95673.31;1052708;28;20114;-73
2021/01/28 00:03:53;;;;;;;12.20;10.70;;;;;;;0.58;99.70;95670.69;1052525;28;20032;-72
2021/01/28 00:04:24;;;;;;;13.40;12.00;;;;;;;0.51;100.00;95666.47;1052704;28;20020;-72
2021/01/28 00:04:54;;;;;;;13.98;12.50;;;;;;;0.50;100.00;95665.69;1052801;28;20024;-72
2021/01/28 00:05:28;;;;;;;13.93;11.77;;;;;;;0.49;100.00;95665.88;1052580;28;20398;-72
2021/01/28 00:05:58;;;;;;;13.77;12.38;;;;;;;0.53;100.00;95662.66;1052747;28;20035;-72
2021/01/28 00:06:29;;;;;;;13.77;12.32;;;;;;;0.55;100.00;95663.28;1052665;28;20034;-72
2021/01/28 00:06:59;;;;;;;13.52;12.13;;;;;;;0.55;99.85;95663.28;1052728;28;20020;-72
2021/01/28 00:07:30;;;;;;;12.63;11.43;;;;;;;0.56;99.79;95662.28;1052648;28;20027;-73
2021/01/28 00:08:00;;;;;;;12.73;11.52;;;;;;;0.50;99.97;95663.06;1052772;28;20016;-72
2021/01/28 00:08:30;;;;;;;13.52;11.98;;;;;;;0.49;100.00;95664.06;1052561;28;20095;-72
2021/01/28 00:09:01;;;;;;;15.35;12.88;;;;;;;0.47;99.93;95658.22;1052690;28;20023;-72
2021/01/28 00:09:31;;;;;;;12.77;11.48;;;;;;;0.52;100.00;95668.88;1052740;28;20030;-72
2021/01/28 00:10:03;;;;;;;14.05;12.52;;;;;;;0.54;100.00;95669.50;1052684;28;20032;-72
2021/01/28 00:10:33;;;;;;;12.85;11.52;;;;;;;0.55;99.98;95668.50;1052681;28;20024;-72
2021/01/28 00:11:04;;;;;;;12.00;10.80;;;;;;;0.54;99.84;95661.66;1052772;28;20471;-72
2021/01/28 00:11:34;;;;;;;12.77;11.48;;;;;;;0.53;100.00;95662.66;1052722;28;20021;-72
2021/01/28 00:12:05;;;;;;;13.43;12.02;;;;;;;0.54;100.00;95660.88;1052699;28;20016;-72
2021/01/28 00:12:35;;;;;;;13.43;11.80;;;;;;;0.56;99.86;95662.28;1052373;28;20012;-72
2021/01/28 00:13:07;;;;;;;12.30;10.45;;;;;;;0.58;99.69;95665.47;1052376;28;20112;-73
2021/01/28 00:13:37;;;;;;;13.77;12.43;;;;;;;0.56;99.76;95658.84;1052716;28;20550;-72
2021/01/28 00:14:08;;;;;;;13.27;11.88;;;;;;;0.53;100.00;95659.25;1048403;28;20033;-72
2021/01/28 00:14:38;;;;;;;12.27;11.02;;;;;;;0.56;100.00;95662.28;1052356;28;20012;-72
2021/01/28 00:15:09;;;;;;;12.32;11.13;;;;;;;0.57;99.82;95666.47;1052304;28;20016;-72
2021/01/28 00:15:40;;;;;;;12.23;11.00;;;;;;;0.58;99.76;95662.88;1048176;28;20016;-72
2021/01/28 00:16:10;;;;;;;13.27;11.98;;;;;;;0.56;99.86;95661.47;1052365;28;20040;-72
2021/01/28 00:16:41;;;;;;;12.68;11.38;;;;;;;0.53;100.00;95664.47;1052363;28;20012;-70
2021/01/28 00:17:11;;;;;;;12.60;11.35;;;;;;;0.54;100.00;95660.88;1052417;28;20160;-70
2021/01/28 00:17:42;;;;;;;12.13;10.82;;;;;;;0.57;100.00;95663.88;1052489;28;20480;-71
2021/01/28 00:18:13;;;;;;;11.88;10.68;;;;;;;0.58;99.76;95668.09;1051980;28;20012;-70
2021/01/28 00:18:43;;;;;;;13.27;11.98;;;;;;;0.54;100.00;95658.25;1047957;28;20073;-70
2021/01/28 00:19:14;;;;;;;13.52;11.68;;;;;;;0.50;100.00;95665.69;1048135;28;20020;-71
2021/01/28 00:19:44;;;;;;;13.23;11.88;;;;;;;0.48;100.00;95661.66;1048277;28;20013;-71
2021/01/28 00:20:27;;;;;;;12.70;11.43;;;;;;;0.54;100.00;95661.66;1052349;28;20016;-70
2021/01/28 00:20:57;;;;;;;11.82;10.63;;;;;;;0.54;100.00;95660.88;1052743;28;20020;-70
2021/01/28 00:21:28;;;;;;;13.43;11.52;;;;;;;0.53;100.00;95659.25;1052490;28;20486;-71
2021/01/28 00:21:58;;;;;;;12.73;11.48;;;;;;;0.55;100.00;95660.66;1052730;28;20016;-70
2021/01/28 00:22:29;;;;;;;12.40;11.20;;;;;;;0.58;99.90;95662.06;1052725;28;20032;-70
2021/01/28 00:22:59;;;;;;;13.23;11.77;;;;;;;0.52;99.97;95658.47;1052692;28;20013;-71
2021/01/28 00:23:30;;;;;;;11.90;10.68;;;;;;;0.52;100.00;95655.84;1052681;28;20024;-71
2021/01/28 00:24:00;;;;;;;12.90;11.60;;;;;;;0.56;100.00;95659.66;1054281;28;20358;-71
2021/01/28 00:24:31;;;;;;;13.10;11.63;;;;;;;0.58;100.00;95657.66;1054408;28;20031;-71
2021/01/28 00:25:01;;;;;;;11.80;10.60;;;;;;;0.61;99.98;95656.47;1054142;28;20017;-70
2021/01/28 00:25:32;;;;;;;13.48;12.00;;;;;;;0.62;99.76;95652.88;1054169;28;20063;-70
2021/01/28 00:26:02;;;;;;;11.93;10.73;;;;;;;0.61;99.60;95656.47;1054263;28;20489;-70
2021/01/28 00:26:33;;;;;;;12.23;11.02;;;;;;;0.62;99.74;95658.09;1054154;28;20020;-69
2021/01/28 00:27:03;;;;;;;11.75;10.52;;;;;;;0.63;99.65;95653.66;1052738;28;20020;-69
2021/01/28 00:27:34;;;;;;;11.88;10.73;;;;;;;0.57;99.88;95650.84;1052420;28;20027;-69
2021/01/28 00:28:05;;;;;;;13.32;11.98;;;;;;;0.58;100.00;95657.66;1048244;28;20017;-69
2021/01/28 00:28:35;;;;;;;12.32;11.15;;;;;;;0.58;100.00;95659.47;1048102;28;20020;-69
2021/01/28 00:29:06;;;;;;;13.48;11.00;;;;;;;0.61;100.00;95650.47;1048339;28;20055;-69
2021/01/28 00:29:36;;;;;;;11.65;10.45;;;;;;;0.58;100.00;95657.66;1052468;28;20373;-69
2021/01/28 00:30:09;;;;;;;11.98;10.88;;;;;;;0.56;99.99;95659.66;1052426;28;20484;-70
2021/01/28 00:30:41;;;;;;;12.50;11.27;;;;;;;0.56;100.00;95653.66;1052756;28;20024;-70
2021/01/28 00:31:12;;;;;;;11.88;10.73;;;;;;;0.61;100.00;95663.50;1052638;28;20111;-69
2021/01/28 00:31:42;;;;;;;12.80;11.50;;;;;;;0.63;99.99;95659.69;1052584;28;20028;-69
2021/01/28 00:32:12;;;;;;;13.43;12.05;;;;;;;0.61;99.90;95650.47;1052661;28;20032;-69
2021/01/28 00:32:43;;;;;;;12.07;10.90;;;;;;;0.63;100.00;95651.06;1052260;28;20106;-70
2021/01/28 00:33:15;;;;;;;12.55;11.35;;;;;;;0.66;99.88;95659.28;1052332;28;20046;-69
2021/01/28 00:33:46;;;;;;;11.25;10.15;;;;;;;0.68;99.75;95653.88;1048139;28;20041;-70
2021/01/28 00:34:16;;;;;;;12.43;11.23;;;;;;;0.68;99.54;95656.47;1048473;28;20067;-70
2021/01/28 00:34:47;;;;;;;12.73;11.43;;;;;;;0.70;99.43;95650.06;1052434;28;20027;-70
2021/01/28 00:35:38;;;;;;;12.75;11.55;;;;;;;0.69;99.47;95645.03;1052381;28;20074;-70
2021/01/28 00:36:08;;;;;;;11.43;10.32;;;;;;;0.69;99.51;95647.66;1052295;28;20546;-70
2021/01/28 00:36:38;;;;;;;12.02;10.80;;;;;;;0.70;99.37;95654.47;1048087;28;20029;-70
2021/01/28 00:37:09;;;;;;;12.15;10.95;;;;;;;0.68;99.52;95646.03;1047985;28;20087;-70
2021/01/28 00:37:39;;;;;;;14.05;11.63;;;;;;;0.66;99.43;95648.84;1044011;28;20071;-70
2021/01/28 00:38:11;;;;;;;12.15;10.95;;;;;;;0.65;99.51;95646.44;1048046;28;20024;-70
2021/01/28 00:38:41;;;;;;;11.70;10.60;;;;;;;0.68;99.46;95648.66;1051896;28;20564;-70
2021/01/28 00:39:12;;;;;;;13.27;11.88;;;;;;;0.63;99.54;95648.47;1052221;28;20098;-69
2021/01/28 00:39:42;;;;;;;12.57;11.27;;;;;;;0.64;99.64;95656.06;1052207;28;20036;-70
2021/01/28 00:40:13;;;;;;;12.38;11.18;;;;;;;0.65;99.67;95649.84;1048022;28;20029;-70
2021/01/28 00:40:43;;;;;;;12.38;11.00;;;;;;;0.66;99.51;95642.84;1048219;28;20103;-70
2021/01/28 00:41:14;;;;;;;12.88;11.57;;;;;;;0.66;99.57;95645.44;1043913;28;20024;-70
2021/01/28 00:41:44;;;;;;;12.20;11.00;;;;;;;0.65;99.41;95642.03;1045730;28;20024;-70
2021/01/28 00:42:15;;;;;;;12.90;11.60;;;;;;;0.61;99.49;95645.25;1048160;28;20060;-70
2021/01/28 00:42:47;;;;;;;11.25;10.15;;;;;;;0.60;99.82;95634.00;1048217;28;20078;-70
2021/01/28 00:43:17;;;;;;;12.05;10.85;;;;;;;0.63;99.86;95638.81;1047910;28;20056;-70
2021/01/28 00:43:48;;;;;;;11.82;10.65;;;;;;;0.65;99.59;95646.44;1048230;28;20028;-70
2021/01/28 00:44:18;;;;;;;11.27;10.18;;;;;;;0.65;99.65;95641.22;1044827;28;20504;-71
2021/01/28 00:44:49;;;;;;;11.57;10.32;;;;;;;0.64;99.69;95644.84;1041094;28;20486;-71
2021/01/28 00:45:21;;;;;;;11.88;10.77;;;;;;;0.65;99.74;95641.22;1045184;28;20013;-71
2021/01/28 00:45:51;;;;;;;12.05;10.85;;;;;;;0.68;99.54;95644.25;1045323;28;20021;-71
2021/01/28 00:46:21;;;;;;;11.88;10.77;;;;;;;0.67;99.58;95649.66;1049219;28;20121;-72
2021/01/28 00:46:52;;;;;;;12.07;10.90;;;;;;;0.66;99.59;95643.63;1049515;28;20047;-71
2021/01/28 00:47:23;;;;;;;13.25;11.88;;;;;;;0.58;99.91;95644.63;1049591;28;20089;-71
2021/01/28 00:47:54;;;;;;;12.65;11.38;;;;;;;0.55;100.00;95645.03;1049874;28;20031;-71
2021/01/28 00:48:25;;;;;;;11.85;10.75;;;;;;;0.58;100.00;95646.41;1048901;28;20024;-71
2021/01/28 00:48:56;;;;;;;13.93;11.32;;;;;;;0.62;100.00;95633.81;1048568;28;20005;-71
2021/01/28 00:49:26;;;;;;;12.43;11.23;;;;;;;0.62;99.96;95641.63;1048317;28;20012;-71
2021/01/28 00:49:56;;;;;;;11.85;10.63;;;;;;;0.63;99.90;95644.03;1048455;28;20016;-71
2021/01/28 00:50:28;;;;;;;11.13;10.02;;;;;;;0.64;99.95;95639.63;1048231;28;20024;-71
2021/01/28 00:50:59;;;;;;;11.43;10.32;;;;;;;0.66;99.74;95642.84;1048222;28;20012;-71
2021/01/28 00:51:30;;;;;;;12.18;10.98;;;;;;;0.64;99.75;95637.81;1048113;28;20481;-71
2021/01/28 00:52:01;;;;;;;12.27;11.07;;;;;;;0.66;99.83;95646.25;1048064;28;20012;-71
2021/01/28 00:52:31;;;;;;;12.07;10.88;;;;;;;0.64;99.78;95634.41;1044240;28;20014;-71
2021/01/28 00:53:02;;;;;;;12.23;11.13;;;;;;;0.66;99.82;95642.84;1048084;28;20539;-71
2021/01/28 00:53:32;;;;;;;11.98;10.88;;;;;;;0.67;99.75;95639.22;1048137;28;20023;-71
2021/01/28 00:54:03;;;;;;;10.82;9.80;;;;;;;0.65;99.87;95638.63;1048065;28;20012;-71
2021/01/28 00:54:34;;;;;;;12.40;11.18;;;;;;;0.65;100.00;95636.81;1048461;28;20012;-71
2021/01/28 00:55:04;;;;;;;11.35;10.25;;;;;;;0.65;100.00;95636.81;1048398;28;20523;-71
2021/01/28 00:55:35;;;;;;;10.68;9.68;;;;;;;0.67;99.97;95640.03;1048444;28;20368;-71
2021/01/28 00:56:05;;;;;;;11.93;10.82;;;;;;;0.67;99.42;95642.63;1048418;28;20016;-71
2021/01/28 00:56:35;;;;;;;11.90;10.70;;;;;;;0.66;99.82;95648.06;1051827;28;20283;-72
2021/01/28 00:57:06;;;;;;;12.90;11.57;;;;;;;0.63;100.00;95643.25;1052654;28;20349;-72
2021/01/28 00:57:36;;;;;;;11.95;10.55;;;;;;;0.63;100.00;95641.44;1052682;28;20055;-71
2021/01/28 00:58:07;;;;;;;10.68;9.68;;;;;;;0.63;100.00;95638.03;1052554;28;20016;-71
2021/01/28 00:58:37;;;;;;;12.52;11.23;;;;;;;0.62;100.00;95641.63;1052636;28;20008;-71
2021/01/28 00:59:08;;;;;;;11.40;10.30;;;;;;;0.65;100.00;95641.22;1052233;28;20091;-71
2021/01/28 00:59:38;;;;;;;11.23;10.13;;;;;;;0.67;99.83;95645.25;1052380;28;20012;-71
2021/01/28 01:00:37;;;;;;;11.43;10.32;;;;;;;0.65;100.00;95644.63;1052261;28;20065;-71
2021/01/28 01:01:07;;;;;;;11.18;10.07;;;;;;;0.64;100.00;95644.84;1052676;28;20059;-70
2021/01/28 01:01:37;;;;;;;12.10;10.80;;;;;;;0.64;100.00;95639.63;1052476;28;20023;-70
2021/01/28 01:02:08;;;;;;;11.95;10.77;;;;;;;0.66;100.00;95637.63;1052577;28;20043;-71
2021/01/28 01:02:40;;;;;;;11.88;10.68;;;;;;;0.62;100.00;95646.84;1052563;28;20373;-71
2021/01/28 01:03:12;;;;;;;12.82;11.30;;;;;;;0.58;100.00;95646.41;1052361;28;20457;-70
2021/01/28 01:03:42;;;;;;;11.15;10.05;;;;;;;0.61;100.00;95650.47;1052226;28;20442;-71
2021/01/28 01:04:13;;;;;;;11.93;10.40;;;;;;;0.61;100.00;95650.47;1052277;28;20012;-71
2021/01/28 01:04:43;;;;;;;12.57;11.27;;;;;;;0.61;100.00;95645.25;1052316;28;20526;-71
2021/01/28 01:05:15;;;;;;;12.13;10.98;;;;;;;0.61;100.00;95650.47;1052727;28;20012;-71
2021/01/28 01:05:46;;;;;;;12.00;10.80;;;;;;;0.60;100.00;95644.44;1053446;28;20076;-71
2021/01/28 01:06:16;;;;;;;11.15;10.10;;;;;;;0.62;100.00;95650.25;1052860;28;20028;-71
2021/01/28 01:06:47;;;;;;;11.55;10.50;;;;;;;0.64;100.00;95650.06;1052969;28;20717;-71
2021/01/28 01:07:17;;;;;;;10.73;9.73;;;;;;;0.68;100.00;95653.88;1053021;28;20061;-71
2021/01/28 01:07:48;;;;;;;11.80;10.70;;;;;;;0.69;100.00;95650.25;1053059;28;20047;-71
2021/01/28 01:08:29;;;;;;;10.38;9.38;;;;;;;0.72;99.96;95657.72;1053316;28;20515;-71
2021/01/28 01:08:59;;;;;;;10.50;9.50;;;;;;;0.74;99.59;95653.09;1053298;28;20047;-71
2021/01/28 01:09:30;;;;;;;11.18;10.07;;;;;;;0.72;100.00;95655.09;1053429;28;20020;-71
2021/01/28 01:10:00;;;;;;;10.48;9.52;;;;;;;0.73;100.00;95648.88;1053335;28;20020;-71
2021/01/28 01:10:40;;;;;;;10.88;9.77;;;;;;;0.73;99.81;95651.50;1053349;28;20017;-71
2021/01/28 01:11:11;;;;;;;10.05;9.15;;;;;;;0.73;99.92;95654.91;1053406;28;20425;-71
2021/01/28 01:11:41;;;;;;;11.73;10.63;;;;;;;0.72;99.99;95650.69;1053113;28;20010;-71
2021/01/28 01:12:12;;;;;;;11.68;10.50;;;;;;;0.73;99.81;95644.47;1053367;28;20016;-71
2021/01/28 01:12:42;;;;;;;10.82;9.75;;;;;;;0.75;99.83;95649.47;1053331;28;20027;-71
2021/01/28 01:13:33;;;;;;;11.40;10.30;;;;;;;0.74;99.83;95646.06;1053341;28;20023;-71
2021/01/28 01:14:04;;;;;;;9.15;8.20;;;;;;;0.76;99.68;95651.88;1053246;28;20502;-71
2021/01/28 01:14:34;;;;;;;10.68;9.57;;;;;;;0.76;99.69;95648.47;1053305;28;20027;-71
2021/01/28 01:15:06;;;;;;;9.98;9.07;;;;;;;0.77;99.51;95650.88;1053319;28;20035;-70
2021/01/28 01:15:37;;;;;;;11.10;10.07;;;;;;;0.75;99.79;95649.47;1052953;28;20061;-70
2021/01/28 01:16:12;;;;;;;11.18;10.07;;;;;;;0.75;99.63;95649.47;1052992;28;20028;-70
2021/01/28 01:16:43;;;;;;;11.10;10.02;;;;;;;0.76;99.68;95654.50;1048729;28;20415;-70
2021/01/28 01:17:13;;;;;;;10.68;9.68;;;;;;;0.73;99.93;95659.31;1045440;28;20021;-70
2021/01/28 01:17:44;;;;;;;10.68;9.68;;;;;;;0.73;100.00;95656.72;1048806;28;20059;-70
2021/01/28 01:18:17;;;;;;;11.13;10.07;;;;;;;0.67;100.00;95657.47;1048954;28;20093;-70
2021/01/28 01:18:48;;;;;;;10.68;9.68;;;;;;;0.66;100.00;95651.47;1053007;28;20091;-70
2021/01/28 01:19:19;;;;;;;11.63;10.45;;;;;;;0.63;100.00;95644.03;1053361;28;20457;-70
2021/01/28 01:19:49;;;;;;;10.48;9.48;;;;;;;0.68;100.00;95657.28;1053276;28;20019;-70
2021/01/28 01:20:20;;;;;;;12.05;10.85;;;;;;;0.71;100.00;95650.84;1053423;28;20032;-70
2021/01/28 01:20:51;;;;;;;10.85;9.85;;;;;;;0.75;99.90;95658.09;1053323;28;20019;-70
2021/01/28 01:21:21;;;;;;;11.52;10.43;;;;;;;0.70;99.78;95652.66;1053354;28;20448;-71
2021/01/28 01:21:52;;;;;;;11.23;10.13;;;;;;;0.70;100.00;95649.25;1053235;28;20133;-70
2021/01/28 01:22:22;;;;;;;11.43;10.32;;;;;;;0.67;100.00;95645.25;1053370;28;20016;-70
2021/01/28 01:22:52;;;;;;;11.00;9.98;;;;;;;0.68;100.00;95646.03;1053228;28;20016;-70
2021/01/28 01:23:23;;;;;;;10.60;9.50;;;;;;;0.70;100.00;95644.84;1053063;28;20580;-70
2021/01/28 01:23:53;;;;;;;10.23;9.23;;;;;;;0.73;100.00;95648.88;1053333;28;20050;-70
2021/01/28 01:24:24;;;;;;;11.63;10.52;;;;;;;0.68;99.99;95643.44;1053352;28;20016;-70
2021/01/28 01:24:54;;;;;;;11.48;10.35;;;;;;;0.67;100.00;95647.03;1053201;28;20373;-70
2021/01/28 01:25:25;;;;;;;11.05;9.98;;;;;;;0.68;100.00;95646.03;1053246;28;20465;-70
2021/01/28 01:25:55;;;;;;;10.35;9.35;;;;;;;0.72;100.00;95647.28;1053348;28;20015;-70
2021/01/28 01:26:25;;;;;;;10.85;9.80;;;;;;;0.65;100.00;95646.44;1053298;28;20019;-70
2021/01/28 01:26:56;;;;;;;11.18;10.07;;;;;;;0.70;100.00;95651.88;1053038;28;20019;-70
2021/01/28 01:27:26;;;;;;;11.68;10.57;;;;;;;0.67;100.00;95653.06;1052940;28;20400;-70
2021/01/28 01:27:57;;;;;;;11.52;10.43;;;;;;;0.67;100.00;95649.66;1052956;28;20484;-70
2021/01/28 01:28:27;;;;;;;11.18;10.07;;;;;;;0.69;100.00;95647.66;1052899;28;20465;-70
2021/01/28 01:28:58;;;;;;;10.88;9.88;;;;;;;0.71;100.00;95645.63;1053370;28;20039;-70
2021/01/28 01:29:28;;;;;;;9.93;9.02;;;;;;;0.72;100.00;95649.88;1052937;28;20031;-70
2021/01/28 01:29:59;;;;;;;10.73;9.73;;;;;;;0.73;100.00;95648.88;1053362;28;20027;-70
2021/01/28 01:30:29;;;;;;;10.45;9.45;;;;;;;0.75;99.93;95641.66;1053311;28;20012;-70
2021/01/28 01:31:00;;;;;;;10.73;9.68;;;;;;;0.75;99.83;95650.28;1053319;28;20024;-70
2021/01/28 01:31:30;;;;;;;10.20;9.25;;;;;;;0.77;99.83;95644.88;1053167;28;20023;-71
2021/01/28 01:32:00;;;;;;;9.73;8.82;;;;;;;0.75;99.97;95652.09;1053313;28;20481;-71
2021/01/28 01:32:31;;;;;;;10.52;9.52;;;;;;;0.77;99.84;95644.88;1053353;28;20020;-71
2021/01/28 01:33:01;;;;;;;10.90;9.88;;;;;;;0.70;100.00;95637.00;1053324;28;20031;-71
2021/01/28 01:33:32;;;;;;;10.52;9.52;;;;;;;0.74;100.00;95640.06;1053303;28;20027;-70
2021/01/28 01:34:02;;;;;;;9.98;9.07;;;;;;;0.77;99.84;95637.84;1053336;28;20462;-71
2021/01/28 01:34:33;;;;;;;10.10;9.18;;;;;;;0.77;99.75;95634.44;1053248;28;20045;-71
2021/01/28 01:35:05;;;;;;;9.88;8.98;;;;;;;0.76;99.92;95641.44;1053317;28;20028;-71
2021/01/28 01:35:35;;;;;;;10.65;9.55;;;;;;;0.79;99.43;95641.06;1053183;28;20504;-71
2021/01/28 01:36:06;;;;;;;10.10;9.13;;;;;;;0.77;99.79;95640.44;1053278;28;20097;-71
2021/01/28 01:36:37;;;;;;;9.48;8.57;;;;;;;0.79;99.82;95638.44;1053287;28;20461;-71
2021/01/28 01:37:07;;;;;;;10.10;9.10;;;;;;;0.75;99.97;95637.25;1053363;28;20392;-71
2021/01/28 01:37:37;;;;;;;10.93;9.82;;;;;;;0.77;99.87;95643.06;1053200;28;20413;-70
2021/01/28 01:38:08;;;;;;;9.75;8.85;;;;;;;0.78;99.87;95641.25;1053249;28;20020;-70
2021/01/28 01:38:39;;;;;;;10.82;9.82;;;;;;;0.79;99.89;95637.63;1053348;28;20024;-70
2021/01/28 01:39:09;;;;;;;10.75;9.75;;;;;;;0.81;99.75;95638.22;1053328;28;20020;-70
2021/01/28 01:39:39;;;;;;;8.93;8.10;;;;;;;0.82;99.51;95637.22;1053240;28;20376;-70
2021/01/28 01:40:13;;;;;;;9.27;8.38;;;;;;;0.80;99.48;95637.44;1053280;28;20020;-70
2021/01/28 01:40:49;;;;;;;10.15;9.15;;;;;;;0.80;99.43;95640.03;1052948;28;20023;-69
2021/01/28 01:41:20;;;;;;;10.25;9.35;;;;;;;0.76;99.60;95635.44;1052837;28;20028;-69
2021/01/28 01:41:50;;;;;;;9.23;8.40;;;;;;;0.76;99.68;95635.44;1052920;28;20097;-69
2021/01/28 01:42:21;;;;;;;9.80;8.85;;;;;;;0.75;99.80;95636.44;1052998;28;20408;-69
2021/01/28 01:42:52;;;;;;;9.68;8.73;;;;;;;0.77;99.80;95639.66;1053287;28;20380;-69
2021/01/28 01:43:23;;;;;;;8.80;8.00;;;;;;;0.79;99.71;95637.63;1053254;28;20012;-69
2021/01/28 01:43:58;;;;;;;9.38;8.57;;;;;;;0.79;99.93;95643.66;1053290;28;20016;-69
2021/01/28 01:44:28;;;;;;;9.98;8.98;;;;;;;0.77;99.92;95632.63;1053251;28;20032;-69
2021/01/28 01:45:00;;;;;;;10.40;9.40;;;;;;;0.74;99.90;95637.44;1052935;28;20023;-69
2021/01/28 01:45:48;;;;;;;9.88;8.98;;;;;;;0.76;99.71;95640.66;1048599;28;20028;-69
2021/01/28 01:46:18;;;;;;;10.48;9.48;;;;;;;0.72;99.89;95634.22;1048725;28;20020;-69
2021/01/28 01:46:52;;;;;;;8.35;7.55;;;;;;;0.76;99.91;95636.22;1051017;28;20016;-69
2021/01/28 01:47:35;;;;;;;9.23;8.32;;;;;;;0.76;99.80;95633.63;1051552;28;20053;-69
2021/01/28 01:48:15;;;;;;;9.07;8.20;;;;;;;0.72;99.96;95623.81;1052974;28;20027;-69
2021/01/28 01:48:47;;;;;;;9.52;8.63;;;;;;;0.73;100.00;95633.22;1052829;28;20028;-69
2021/01/28 01:49:17;;;;;;;8.82;8.02;;;;;;;0.72;100.00;95629.03;1048743;28;20039;-69
2021/01/28 01:49:48;;;;;;;9.45;8.55;;;;;;;0.73;100.00;95628.00;1040509;28;20462;-69
2021/01/28 01:50:39;;;;;;;9.05;8.25;;;;;;;0.78;100.00;95631.63;1036294;28;20509;-69
2021/01/28 01:51:21;;;;;;;8.68;7.88;;;;;;;0.77;99.82;95619.59;1041813;28;20029;-69
2021/01/28 01:51:52;;;;;;;7.40;6.70;;;;;;;0.79;99.85;95617.56;1048929;28;20477;-69
2021/01/28 01:52:24;;;;;;;8.45;7.65;;;;;;;0.81;99.92;95619.97;1052824;28;20024;-69
2021/01/28 01:52:56;;;;;;;9.48;8.57;;;;;;;0.78;99.83;95621.19;1044576;28;20490;-69
2021/01/28 01:53:26;;;;;;;8.10;7.40;;;;;;;0.80;99.92;95620.97;1045203;28;20016;-69
2021/01/28 01:54:20;;;;;;;8.75;7.95;;;;;;;0.79;99.93;95616.75;1048756;28;20482;-69
2021/01/28 01:54:51;;;;;;;9.40;8.50;;;;;;;0.75;100.00;95615.56;1051800;28;20495;-69
2021/01/28 01:55:21;;;;;;;8.82;7.95;;;;;;;0.78;99.92;95618.56;1048729;28;20032;-69
2021/01/28 01:55:55;;;;;;;8.90;8.05;;;;;;;0.79;99.82;95616.75;1044517;28;20036;-69
2021/01/28 01:56:31;;;;;;;8.23;7.53;;;;;;;0.80;99.75;95616.56;1044514;28;20413;-69
2021/01/28 01:57:06;;;;;;;8.70;7.90;;;;;;;0.81;99.66;95619.97;1041776;28;20188;-69
2021/01/28 01:57:37;;;;;;;8.40;7.60;;;;;;;0.80;99.82;95613.16;1046584;28;20044;-69
2021/01/28 01:58:07;;;;;;;8.75;7.95;;;;;;;0.80;99.50;95613.16;1044605;28;20013;-69
2021/01/28 01:59:10;;;;;;;8.75;7.95;;;;;;;0.80;99.80;95620.97;1041289;28;20071;-69
2021/01/28 02:00:08;;;;;;;8.88;8.07;;;;;;;0.75;100.00;95620.78;1048938;28;20417;-69
2021/01/28 02:00:38;;;;;;;9.43;8.52;;;;;;;0.75;99.85;95618.19;1047858;28;20377;-69
2021/01/28 02:01:09;;;;;;;9.68;8.75;;;;;;;0.73;100.00;95617.59;1052849;28;20024;-69
2021/01/28 02:01:48;;;;;;;9.88;8.68;;;;;;;0.70;100.00;95612.75;1052840;28;20050;-69
2021/01/28 02:02:19;;;;;;;;;;;;;;;0.74;100.00;95617.38;1049209;28;20032;-70
2021/01/28 02:02:54;;;;;;;8.82;8.02;;;;;;;0.75;100.00;95616.38;1044479;28;19991;-69
2021/01/28 02:03:24;;;;;;;8.50;7.70;;;;;;;0.75;100.00;95611.16;1044686;28;20436;-69
2021/01/28 02:03:55;;;;;;;7.85;7.15;;;;;;;0.75;100.00;95612.97;1041170;28;20017;-69
2021/01/28 02:04:25;;;;;;;8.10;7.40;;;;;;;0.74;100.00;95616.56;1040440;28;20029;-69
2021/01/28 02:04:59;;;;;;;10.15;9.15;;;;;;;0.72;100.00;95626.41;1040290;28;20045;-69
2021/01/28 02:05:32;;;;;;;8.80;8.00;;;;;;;0.71;100.00;95627.38;1040883;28;20061;-69
2021/01/28 02:06:13;;;;;;;8.40;7.60;;;;;;;0.73;100.00;95617.59;1040468;28;20041;-69
2021/01/28 02:06:49;;;;;;;9.32;8.43;;;;;;;0.76;100.00;95612.75;1040446;28;20528;-70
2021/01/28 02:07:21;;;;;;;8.30;7.50;;;;;;;0.77;100.00;95610.94;1032233;28;20058;-70
2021/01/28 02:07:52;;;;;;;8.43;7.63;;;;;;;0.76;100.00;95611.97;1034987;28;20032;-69
2021/01/28 02:08:22;;;;;;;8.13;7.35;;;;;;;0.78;100.00;95620.38;1039790;28;20025;-70
2021/01/28 02:08:53;;;;;;;8.32;7.60;;;;;;;0.78;100.00;95618.56;1041112;28;20025;-69
2021/01/28 02:09:24;;;;;;;9.45;8.55;;;;;;;0.80;100.00;95615.75;1044584;28;20067;-69
2021/01/28 02:09:54;;;;;;;8.65;7.85;;;;;;;0.81;99.93;95615.56;1044571;28;20044;-71
2021/01/28 02:10:25;;;;;;;8.90;8.10;;;;;;;0.77;100.00;95608.34;1044781;28;20493;-69
2021/01/28 02:10:55;;;;;;;9.00;8.10;;;;;;;0.77;100.00;95609.16;1048593;28;20051;-70
2021/01/28 02:11:26;;;;;;;8.43;7.70;;;;;;;0.78;100.00;95604.72;1048977;28;20028;-70
2021/01/28 02:11:56;;;;;;;8.88;8.00;;;;;;;0.78;100.00;95605.53;1048954;28;20449;-70
2021/01/28 02:12:27;;;;;;;7.97;7.28;;;;;;;0.78;100.00;95600.31;1049033;28;20035;-69
2021/01/28 02:12:58;;;;;;;8.65;7.85;;;;;;;0.77;100.00;95608.34;1048976;28;20614;-70
2021/01/28 02:13:28;;;;;;;8.63;7.82;;;;;;;0.75;100.00;95605.94;1048723;28;20087;-70
2021/01/28 02:14:00;;;;;;;9.00;8.20;;;;;;;0.75;100.00;95605.94;1044499;28;20025;-70
2021/01/28 02:14:30;;;;;;;8.90;8.10;;;;;;;0.76;100.00;95604.13;1040404;28;20052;-69
2021/01/28 02:15:01;;;;;;;8.85;8.10;;;;;;;0.76;100.00;95607.53;1040708;28;20068;-70
2021/01/28 02:15:31;;;;;;;9.43;8.48;;;;;;;0.74;100.00;95608.75;1044830;28;20087;-70
2021/01/28 02:16:02;;;;;;;8.93;8.10;;;;;;;0.75;100.00;95607.75;1048223;28;20100;-70
2021/01/28 02:16:37;;;;;;;10.15;9.15;;;;;;;0.73;100.00;95615.78;1052708;28;20032;-69
2021/01/28 02:17:18;;;;;;;8.93;8.10;;;;;;;0.72;100.00;95605.53;1054071;28;20016;-70
2021/01/28 02:17:50;;;;;;;7.93;7.13;;;;;;;0.73;100.00;95609.75;1048712;28;20075;-70
2021/01/28 02:18:21;;;;;;;9.63;8.70;;;;;;;0.68;100.00;95609.53;1048654;28;20032;-71
2021/01/28 02:18:51;;;;;;;8.82;8.02;;;;;;;0.64;100.00;95611.75;1044435;28;20017;-71
2021/01/28 02:19:42;;;;;;;9.32;8.43;;;;;;;0.66;100.00;95607.13;1040377;28;20033;-71
2021/01/28 02:20:35;;;;;;;9.43;8.52;;;;;;;0.66;100.00;95601.09;1039142;28;20026;-71
2021/01/28 02:21:18;;;;;;;9.02;8.15;;;;;;;0.67;100.00;95606.13;1044033;28;20522;-71
2021/01/28 02:21:49;;;;;;;9.93;8.93;;;;;;;0.67;100.00;95613.13;1047205;28;20051;-70
2021/01/28 02:22:36;;;;;;;10.27;9.27;;;;;;;0.59;100.00;95606.31;1046941;28;20406;-71
2021/01/28 02:23:13;;;;;;;8.63;7.82;;;;;;;0.67;100.00;95602.72;1045051;28;20505;-70
2021/01/28 02:24:19;;;;;;;9.40;8.50;;;;;;;0.65;100.00;95612.53;1043627;28;20074;-71
2021/01/28 02:24:50;;;;;;;9.73;8.82;;;;;;;0.67;100.00;95600.09;1041292;28;20033;-70
2021/01/28 02:25:25;;;;;;;8.93;8.13;;;;;;;0.63;100.00;95598.91;1041025;28;20467;-71
2021/01/28 02:25:55;;;;;;;9.77;8.77;;;;;;;0.56;100.00;95607.50;1044500;28;20112;-70
2021/01/28 02:26:26;;;;;;;10.32;9.30;;;;;;;0.53;100.00;95604.50;1041146;28;20075;-70
2021/01/28 02:26:56;;;;;;;9.48;8.57;;;;;;;0.55;100.00;95603.28;1036922;28;20157;-70
2021/01/28 02:27:27;;;;;;;8.93;8.07;;;;;;;0.55;100.00;95598.06;1036234;28;20065;-71
2021/01/28 02:28:10;;;;;;;9.77;8.82;;;;;;;0.60;100.00;95596.69;1036303;28;20041;-70
2021/01/28 02:28:40;;;;;;;9.00;8.20;;;;;;;0.62;100.00;95600.72;1039768;28;20112;-70
2021/01/28 02:29:11;;;;;;;9.25;8.35;;;;;;;0.60;100.00;95600.13;1046236;28;20025;-70
2021/01/28 02:29:41;;;;;;;10.70;9.55;;;;;;;0.63;100.00;95593.69;1048635;28;20108;-71
2021/01/28 02:30:17;;;;;;;10.45;9.45;;;;;;;0.64;100.00;95597.91;1044601;28;20013;-70
2021/01/28 02:30:48;;;;;;;9.30;8.43;;;;;;;0.64;100.00;95593.47;1048640;28;20028;-71